createdAt,value
2022-10-23T00:00:24.237Z,996.84
2022-10-23T00:01:24.120Z,996.83
2022-10-23T00:02:24.156Z,996.85
2022-10-23T00:03:24.074Z,996.87
2022-10-23T00:04:24.065Z,996.83
2022-10-23T00:05:24.057Z,996.79
2022-10-23T00:06:24.065Z,996.80
2022-10-23T00:07:24.098Z,996.82
2022-10-23T00:08:24.016Z,996.79
2022-10-23T00:09:24.016Z,996.82
2022-10-23T00:10:24.003Z,996.81
2022-10-23T00:11:24.016Z,996.82
2022-10-23T00:12:23.979Z,996.79
2022-10-23T00:13:23.968Z,996.76
2022-10-23T00:14:23.960Z,996.76
2022-10-23T00:15:23.948Z,996.79
2022-10-23T00:16:23.949Z,996.84
2022-10-23T00:17:23.929Z,996.84
2022-10-23T00:18:23.909Z,996.81
2022-10-23T00:19:23.908Z,996.82
2022-10-23T00:20:23.890Z,996.81
2022-10-23T00:21:23.909Z,996.80
2022-10-23T00:22:23.870Z,996.78
2022-10-23T00:23:23.870Z,996.74
2022-10-23T00:24:23.850Z,996.73
2022-10-23T00:25:23.849Z,996.73
2022-10-23T00:26:23.842Z,996.73
2022-10-23T00:27:23.821Z,996.72
2022-10-23T00:28:23.821Z,996.73
2022-10-23T00:29:23.823Z,996.76
2022-10-23T00:30:23.790Z,996.74
2022-10-23T00:31:23.803Z,996.77
2022-10-23T00:32:23.792Z,996.81
2022-10-23T00:33:23.763Z,996.85
2022-10-23T00:34:23.746Z,996.82
2022-10-23T00:35:23.744Z,996.85
2022-10-23T00:36:23.746Z,996.83
2022-10-23T00:37:23.724Z,996.76
2022-10-23T00:38:23.706Z,996.80
2022-10-23T00:39:23.696Z,996.85
2022-10-23T00:40:23.676Z,996.83
2022-10-23T00:41:23.697Z,996.87
2022-10-23T00:42:23.670Z,996.82
2022-10-23T00:43:23.666Z,996.85
2022-10-23T00:44:23.637Z,996.87
2022-10-23T00:45:23.637Z,996.84
2022-10-23T00:46:23.646Z,996.80
2022-10-23T00:47:23.618Z,996.83
2022-10-23T00:48:23.600Z,996.82
2022-10-23T00:49:23.596Z,996.83
2022-10-23T00:50:23.577Z,996.80
2022-10-23T00:51:23.589Z,996.88
2022-10-23T00:52:23.557Z,996.83
2022-10-23T00:53:23.550Z,996.87
2022-10-23T00:54:24.655Z,996.87
2022-10-23T00:55:23.531Z,996.85
2022-10-23T00:56:23.541Z,996.80
2022-10-23T00:57:23.549Z,996.78
2022-10-23T00:58:23.492Z,996.78
2022-10-23T00:59:23.490Z,996.69
2022-10-23T01:00:23.493Z,996.68
2022-10-23T01:01:23.594Z,996.64
2022-10-23T01:02:23.486Z,996.65
2022-10-23T01:03:23.452Z,996.64
2022-10-23T01:04:23.434Z,996.64
2022-10-23T01:05:23.424Z,996.71
2022-10-23T01:06:23.434Z,996.68
2022-10-23T01:07:23.406Z,996.69
2022-10-23T01:08:23.386Z,996.71
2022-10-23T01:09:23.385Z,996.72
2022-10-23T01:10:23.367Z,996.69
2022-10-23T01:11:23.385Z,996.69
2022-10-23T01:12:23.346Z,996.69
2022-10-23T01:13:23.344Z,996.61
2022-10-23T01:14:23.328Z,996.57
2022-10-23T01:15:23.331Z,996.64
2022-10-23T01:16:23.326Z,996.59
2022-10-23T01:17:23.298Z,996.64
2022-10-23T01:18:23.299Z,996.65
2022-10-23T01:19:23.285Z,996.68
2022-10-23T01:20:23.269Z,996.68
2022-10-23T01:21:23.279Z,996.64
2022-10-23T01:23:23.239Z,996.71
2022-10-23T01:24:23.239Z,996.70
2022-10-23T01:25:23.221Z,996.64
2022-10-23T01:26:23.219Z,996.69
2022-10-23T01:27:23.201Z,996.56
2022-10-23T01:28:23.180Z,996.60
2022-10-23T01:29:23.182Z,996.54
2022-10-23T01:30:23.163Z,996.58
2022-10-23T01:31:23.184Z,996.54
2022-10-23T01:32:23.132Z,996.53
2022-10-23T01:33:23.144Z,996.49
2022-10-23T01:34:23.123Z,996.52
2022-10-23T01:35:23.115Z,996.52
2022-10-23T01:36:23.113Z,996.50
2022-10-23T01:37:23.095Z,996.52
2022-10-23T01:38:23.074Z,996.48
2022-10-23T01:39:23.075Z,996.53
2022-10-23T01:40:23.056Z,996.51
2022-10-23T01:41:23.074Z,996.51
2022-10-23T01:42:23.042Z,996.50
2022-10-23T01:43:23.034Z,996.51
2022-10-23T01:44:23.016Z,996.47
2022-10-23T01:45:23.010Z,996.45
2022-10-23T01:46:23.019Z,996.40
2022-10-23T01:47:22.993Z,996.49
2022-10-23T01:48:22.977Z,996.50
2022-10-23T01:49:22.969Z,996.50
2022-10-23T01:50:22.948Z,996.46
2022-10-23T01:51:22.969Z,996.52
2022-10-23T01:52:22.929Z,996.52
2022-10-23T01:53:22.921Z,996.47
2022-10-23T01:54:22.910Z,996.47
2022-10-23T01:55:22.908Z,996.47
2022-10-23T01:56:22.919Z,996.47
2022-10-23T01:57:22.892Z,996.46
2022-10-23T01:58:22.870Z,996.45
2022-10-23T01:59:22.864Z,996.49
2022-10-23T02:00:22.852Z,996.44
2022-10-23T02:01:22.955Z,996.44
2022-10-23T02:02:22.885Z,996.42
2022-10-23T02:03:22.824Z,996.46
2022-10-23T02:04:22.810Z,996.42
2022-10-23T02:05:22.802Z,996.39
2022-10-23T02:06:22.804Z,996.43
2022-10-23T02:07:22.781Z,996.39
2022-10-23T02:08:22.764Z,996.42
2022-10-23T02:09:22.762Z,996.45
2022-10-23T02:10:22.743Z,996.46
2022-10-23T02:11:22.755Z,996.47
2022-10-23T02:12:22.757Z,996.52
2022-10-23T02:13:22.716Z,996.53
2022-10-23T02:14:22.707Z,996.55
2022-10-23T02:15:22.696Z,996.57
2022-10-23T02:16:22.707Z,996.63
2022-10-23T02:17:22.677Z,996.58
2022-10-23T02:18:22.659Z,996.59
2022-10-23T02:19:22.659Z,996.50
2022-10-23T02:20:22.640Z,996.49
2022-10-23T02:21:22.667Z,996.47
2022-10-23T02:22:22.618Z,996.48
2022-10-23T02:23:22.611Z,996.52
2022-10-23T02:24:22.599Z,996.52
2022-10-23T02:25:22.590Z,996.53
2022-10-23T02:26:22.590Z,996.50
2022-10-23T02:27:22.572Z,996.51
2022-10-23T02:28:22.559Z,996.51
2022-10-23T02:29:22.558Z,996.42
2022-10-23T02:30:22.531Z,996.46
2022-10-23T02:31:22.542Z,996.47
2022-10-23T02:32:22.518Z,996.46
2022-10-23T02:33:22.509Z,996.49
2022-10-23T02:34:22.492Z,996.46
2022-10-23T02:35:22.503Z,996.44
2022-10-23T02:36:22.492Z,996.44
2022-10-23T02:38:22.454Z,996.39
2022-10-23T02:39:22.452Z,996.39
2022-10-23T02:40:22.426Z,996.32
2022-10-23T02:41:22.446Z,996.24
2022-10-23T02:42:22.405Z,996.25
2022-10-23T02:43:22.405Z,996.24
2022-10-23T02:44:22.387Z,996.23
2022-10-23T02:45:22.385Z,996.24
2022-10-23T02:46:22.405Z,996.24
2022-10-23T02:47:22.368Z,996.22
2022-10-23T02:48:22.354Z,996.25
2022-10-23T02:49:22.338Z,996.24
2022-10-23T02:50:22.326Z,996.26
2022-10-23T02:51:22.327Z,996.25
2022-10-23T02:52:22.299Z,996.26
2022-10-23T02:53:22.301Z,996.26
2022-10-23T02:54:22.282Z,996.29
2022-10-23T02:55:22.277Z,996.29
2022-10-23T02:56:22.278Z,996.25
2022-10-23T02:57:22.258Z,996.26
2022-10-23T02:58:22.273Z,996.27
2022-10-23T02:59:22.231Z,996.26
2022-10-23T03:00:22.219Z,996.27
2022-10-23T03:01:22.269Z,996.23
2022-10-23T03:02:22.354Z,996.21
2022-10-23T03:03:22.191Z,996.22
2022-10-23T03:04:22.181Z,996.20
2022-10-23T03:05:22.171Z,996.12
2022-10-23T03:06:22.175Z,996.17
2022-10-23T03:07:22.150Z,996.14
2022-10-23T03:08:22.133Z,996.15
2022-10-23T03:09:22.133Z,996.07
2022-10-23T03:10:22.122Z,996.09
2022-10-23T03:11:22.124Z,996.03
2022-10-23T03:12:22.093Z,996.08
2022-10-23T03:13:22.083Z,996.00
2022-10-23T03:14:22.078Z,996.05
2022-10-23T03:15:22.059Z,995.97
2022-10-23T03:16:22.076Z,996.00
2022-10-23T03:17:22.036Z,995.99
2022-10-23T03:18:22.026Z,996.03
2022-10-23T03:19:22.016Z,996.05
2022-10-23T03:20:22.006Z,995.97
2022-10-23T03:21:22.015Z,996.00
2022-10-23T03:22:21.987Z,996.05
2022-10-23T03:23:21.977Z,996.04
2022-10-23T03:24:21.975Z,996.05
2022-10-23T03:25:21.958Z,995.99
2022-10-23T03:26:21.966Z,996.03
2022-10-23T03:27:21.993Z,996.05
2022-10-23T03:28:21.927Z,996.06
2022-10-23T03:29:21.910Z,996.08
2022-10-23T03:30:21.908Z,996.06
2022-10-23T03:31:21.907Z,996.07
2022-10-23T03:32:21.887Z,996.06
2022-10-23T03:33:21.870Z,996.07
2022-10-23T03:34:21.862Z,996.03
2022-10-23T03:35:21.852Z,996.05
2022-10-23T03:36:21.853Z,996.01
2022-10-23T03:37:21.822Z,995.99
2022-10-23T03:38:21.822Z,996.01
2022-10-23T03:39:21.804Z,996.00
2022-10-23T03:40:21.810Z,995.98
2022-10-23T03:41:21.826Z,995.97
2022-10-23T03:42:21.777Z,995.97
2022-10-23T03:43:21.767Z,995.96
2022-10-23T03:44:21.760Z,996.01
2022-10-23T03:45:21.744Z,996.01
2022-10-23T03:46:21.753Z,996.00
2022-10-23T03:47:21.755Z,995.95
2022-10-23T03:48:21.715Z,996.02
2022-10-23T03:49:21.695Z,996.04
2022-10-23T03:50:21.706Z,996.06
2022-10-23T03:51:21.707Z,996.02
2022-10-23T03:52:21.758Z,996.07
2022-10-23T03:53:21.659Z,996.07
2022-10-23T03:54:21.647Z,996.00
2022-10-23T03:55:21.636Z,996.00
2022-10-23T03:56:21.648Z,996.00
2022-10-23T03:57:21.619Z,996.01
2022-10-23T03:58:21.617Z,995.95
2022-10-23T03:59:21.599Z,995.94
2022-10-23T04:00:21.608Z,995.91
2022-10-23T04:01:21.614Z,995.86
2022-10-23T04:02:21.661Z,995.85
2022-10-23T04:03:21.550Z,995.83
2022-10-23T04:04:21.548Z,995.89
2022-10-23T04:05:21.552Z,995.87
2022-10-23T04:06:21.528Z,995.85
2022-10-23T04:07:21.538Z,995.78
2022-10-23T04:08:21.513Z,995.78
2022-10-23T04:09:21.492Z,995.78
2022-10-23T04:10:21.503Z,995.79
2022-10-23T04:11:21.473Z,995.77
2022-10-23T04:12:21.464Z,995.80
2022-10-23T04:13:21.453Z,995.74
2022-10-23T04:14:21.441Z,995.76
2022-10-23T04:15:21.454Z,995.80
2022-10-23T04:16:21.425Z,995.75
2022-10-23T04:17:21.482Z,995.82
2022-10-23T04:18:21.417Z,995.82
2022-10-23T04:19:21.396Z,995.77
2022-10-23T04:20:21.380Z,995.80
2022-10-23T04:21:21.376Z,995.79
2022-10-23T04:22:24.695Z,995.77
2022-10-23T04:23:22.347Z,995.83
2022-10-23T04:24:21.337Z,995.80
2022-10-23T04:25:21.340Z,995.77
2022-10-23T04:26:21.347Z,995.74
2022-10-23T04:27:21.326Z,995.75
2022-10-23T04:28:21.295Z,995.71
2022-10-23T04:29:21.279Z,995.69
2022-10-23T04:30:21.280Z,995.75
2022-10-23T04:31:21.300Z,995.69
2022-10-23T04:32:21.252Z,995.74
2022-10-23T04:33:21.251Z,995.69
2022-10-23T04:34:21.232Z,995.75
2022-10-23T04:35:21.213Z,995.69
2022-10-23T04:36:21.249Z,995.71
2022-10-23T04:37:21.191Z,995.69
2022-10-23T04:38:21.189Z,995.69
2022-10-23T04:39:21.171Z,995.66
2022-10-23T04:40:21.163Z,995.65
2022-10-23T04:41:21.183Z,995.61
2022-10-23T04:42:21.204Z,995.63
2022-10-23T04:43:21.143Z,995.62
2022-10-23T04:44:21.124Z,995.60
2022-10-23T04:45:21.111Z,995.64
2022-10-23T04:46:21.137Z,995.61
2022-10-23T04:47:21.084Z,995.66
2022-10-23T04:48:23.420Z,995.62
2022-10-23T04:49:21.065Z,995.66
2022-10-23T04:50:21.066Z,995.72
2022-10-23T04:51:21.062Z,995.68
2022-10-23T04:52:21.036Z,995.70
2022-10-23T04:53:21.026Z,995.69
2022-10-23T04:54:21.046Z,995.70
2022-10-23T04:55:21.003Z,995.71
2022-10-23T04:56:21.017Z,995.66
2022-10-23T04:57:20.990Z,995.68
2022-10-23T04:58:20.978Z,995.75
2022-10-23T04:59:20.972Z,995.68
2022-10-23T05:00:20.958Z,995.76
2022-10-23T05:01:21.081Z,995.73
2022-10-23T05:02:20.940Z,995.70
2022-10-23T05:03:20.919Z,995.75
2022-10-23T05:04:20.910Z,995.74
2022-10-23T05:05:20.898Z,995.71
2022-10-23T05:06:20.909Z,995.71
2022-10-23T05:08:20.878Z,995.70
2022-10-23T05:09:20.852Z,995.75
2022-10-23T05:10:20.851Z,995.78
2022-10-23T05:11:20.869Z,995.74
2022-10-23T05:12:20.839Z,995.72
2022-10-23T05:13:20.815Z,995.72
2022-10-23T05:14:22.801Z,995.71
2022-10-23T05:15:20.795Z,995.69
2022-10-23T05:16:20.815Z,995.66
2022-10-23T05:17:20.773Z,995.62
2022-10-23T05:18:20.774Z,995.55
2022-10-23T05:19:23.460Z,995.56
2022-10-23T05:20:20.744Z,995.62
2022-10-23T05:21:20.747Z,995.58
2022-10-23T05:22:20.736Z,995.53
2022-10-23T05:23:20.706Z,995.47
2022-10-23T05:24:20.697Z,995.44
2022-10-23T05:25:20.688Z,995.40
2022-10-23T05:26:20.697Z,995.38
2022-10-23T05:27:20.664Z,995.41
2022-10-23T05:28:20.669Z,995.46
2022-10-23T05:29:20.650Z,995.45
2022-10-23T05:30:20.636Z,995.50
2022-10-23T05:31:20.666Z,995.55
2022-10-23T05:33:20.600Z,995.60
2022-10-23T05:34:20.597Z,995.63
2022-10-23T05:35:20.580Z,995.64
2022-10-23T05:36:20.590Z,995.64
2022-10-23T05:37:20.561Z,995.59
2022-10-23T05:38:20.551Z,995.63
2022-10-23T05:39:20.491Z,995.58
2022-10-23T05:40:20.536Z,995.61
2022-10-23T05:41:20.541Z,995.60
2022-10-23T05:42:20.510Z,995.60
2022-10-23T05:43:21.243Z,995.65
2022-10-23T05:44:20.493Z,995.62
2022-10-23T05:45:20.429Z,995.60
2022-10-23T05:46:20.425Z,995.59
2022-10-23T05:47:20.403Z,995.56
2022-10-23T05:48:34.432Z,995.53
2022-10-23T05:49:21.383Z,995.44
2022-10-23T05:50:20.374Z,995.47
2022-10-23T05:51:20.374Z,995.43
2022-10-23T05:52:20.352Z,995.44
2022-10-23T05:53:20.337Z,995.41
2022-10-23T05:54:20.326Z,995.40
2022-10-23T05:55:20.316Z,995.38
2022-10-23T05:56:20.327Z,995.39
2022-10-23T05:57:20.289Z,995.41
2022-10-23T05:58:20.290Z,995.42
2022-10-23T05:59:22.887Z,995.42
2022-10-23T06:00:20.268Z,995.44
2022-10-23T06:01:20.324Z,995.41
2022-10-23T06:02:20.270Z,995.40
2022-10-23T06:03:20.227Z,995.37
2022-10-23T06:04:20.238Z,995.39
2022-10-23T06:05:20.209Z,995.39
2022-10-23T06:06:20.219Z,995.41
2022-10-23T06:07:20.189Z,995.46
2022-10-23T06:08:20.190Z,995.42
2022-10-23T06:09:20.167Z,995.47
2022-10-23T06:10:20.159Z,995.44
2022-10-23T06:11:20.191Z,995.41
2022-10-23T06:12:20.139Z,995.35
2022-10-23T06:13:20.123Z,995.33
2022-10-23T06:14:20.111Z,995.33
2022-10-23T06:15:20.106Z,995.33
2022-10-23T06:16:20.112Z,995.27
2022-10-23T06:17:20.095Z,995.29
2022-10-23T06:18:20.072Z,995.24
2022-10-23T06:19:20.063Z,995.32
2022-10-23T06:20:20.053Z,995.40
2022-10-23T06:21:20.062Z,995.40
2022-10-23T06:23:20.024Z,995.49
2022-10-23T06:24:20.013Z,995.47
2022-10-23T06:25:19.996Z,995.44
2022-10-23T06:26:20.018Z,995.40
2022-10-23T06:27:19.976Z,995.29
2022-10-23T06:28:20.792Z,995.27
2022-10-23T06:29:19.957Z,995.30
2022-10-23T06:30:19.946Z,995.24
2022-10-23T06:31:19.947Z,995.21
2022-10-23T06:32:19.927Z,995.25
2022-10-23T06:33:19.920Z,995.30
2022-10-23T06:34:19.906Z,995.29
2022-10-23T06:35:19.895Z,995.24
2022-10-23T06:36:19.904Z,995.24
2022-10-23T06:37:19.868Z,995.29
2022-10-23T06:38:19.870Z,995.32
2022-10-23T06:39:19.851Z,995.33
2022-10-23T06:40:19.842Z,995.38
2022-10-23T06:41:19.846Z,995.31
2022-10-23T06:42:19.821Z,995.37
2022-10-23T06:43:19.801Z,995.37
2022-10-23T06:44:19.802Z,995.34
2022-10-23T06:45:19.783Z,995.37
2022-10-23T06:46:19.801Z,995.29
2022-10-23T06:47:19.765Z,995.28
2022-10-23T06:48:19.762Z,995.19
2022-10-23T06:49:19.742Z,995.25
2022-10-23T06:50:19.741Z,995.17
2022-10-23T06:51:19.737Z,995.27
2022-10-23T06:52:41.612Z,995.26
2022-10-23T06:53:20.695Z,995.23
2022-10-23T06:54:19.695Z,995.33
2022-10-23T06:55:19.685Z,995.33
2022-10-23T06:56:19.695Z,995.35
2022-10-23T06:57:19.654Z,995.27
2022-10-23T06:58:19.656Z,995.31
2022-10-23T06:59:19.646Z,995.26
2022-10-23T07:00:19.629Z,995.26
2022-10-23T07:01:19.814Z,995.31
2022-10-23T07:02:19.607Z,995.36
2022-10-23T07:03:19.596Z,995.30
2022-10-23T07:04:19.596Z,995.37
2022-10-23T07:05:19.568Z,995.34
2022-10-23T07:06:19.578Z,995.33
2022-10-23T07:07:19.550Z,995.32
2022-10-23T07:08:19.547Z,995.30
2022-10-23T07:09:19.541Z,995.23
2022-10-23T07:10:19.529Z,995.29
2022-10-23T07:11:19.522Z,995.29
2022-10-23T07:12:19.519Z,995.28
2022-10-23T07:13:19.489Z,995.30
2022-10-23T07:14:19.480Z,995.30
2022-10-23T07:15:19.470Z,995.31
2022-10-23T07:16:19.481Z,995.31
2022-10-23T07:17:19.442Z,995.34
2022-10-23T07:18:19.444Z,995.36
2022-10-23T07:19:19.422Z,995.30
2022-10-23T07:20:19.422Z,995.32
2022-10-23T07:21:19.432Z,995.33
2022-10-23T07:22:19.393Z,995.29
2022-10-23T07:23:19.387Z,995.29
2022-10-23T07:24:19.381Z,995.30
2022-10-23T07:25:19.364Z,995.25
2022-10-23T07:26:19.373Z,995.25
2022-10-23T07:27:19.346Z,995.28
2022-10-23T07:28:19.337Z,995.23
2022-10-23T07:29:19.315Z,995.22
2022-10-23T07:30:19.324Z,995.29
2022-10-23T07:31:21.993Z,995.24
2022-10-23T07:32:19.295Z,995.19
2022-10-23T07:33:19.286Z,995.26
2022-10-23T07:34:19.267Z,995.25
2022-10-23T07:35:19.266Z,995.25
2022-10-23T07:36:19.258Z,995.18
2022-10-23T07:37:19.237Z,995.21
2022-10-23T07:38:19.218Z,995.24
2022-10-23T07:39:19.219Z,995.17
2022-10-23T07:40:19.206Z,995.15
2022-10-23T07:41:19.218Z,995.18
2022-10-23T07:42:19.186Z,995.21
2022-10-23T07:43:19.211Z,995.19
2022-10-23T07:44:21.018Z,995.19
2022-10-23T07:45:19.156Z,995.20
2022-10-23T07:46:19.161Z,995.23
2022-10-23T07:47:19.161Z,995.22
2022-10-23T07:48:19.121Z,995.21
2022-10-23T07:49:19.111Z,995.18
2022-10-23T07:50:19.095Z,995.18
2022-10-23T07:51:19.091Z,995.19
2022-10-23T07:52:19.095Z,995.17
2022-10-23T07:53:19.062Z,995.13
2022-10-23T07:54:19.061Z,995.13
2022-10-23T07:55:19.053Z,995.14
2022-10-23T07:56:19.032Z,995.07
2022-10-23T07:57:19.043Z,995.13
2022-10-23T07:58:19.015Z,995.01
2022-10-23T07:59:19.014Z,994.99
2022-10-23T08:00:19.046Z,995.03
2022-10-23T08:01:19.085Z,995.04
2022-10-23T08:02:19.020Z,995.00
2022-10-23T08:03:18.965Z,994.98
2022-10-23T08:04:18.946Z,995.00
2022-10-23T08:05:18.947Z,994.99
2022-10-23T08:06:18.926Z,995.07
2022-10-23T08:07:18.947Z,995.07
2022-10-23T08:08:18.907Z,995.02
2022-10-23T08:09:18.908Z,994.99
2022-10-23T08:10:18.887Z,994.99
2022-10-23T08:11:18.879Z,995.04
2022-10-23T08:12:18.893Z,995.00
2022-10-23T08:13:18.859Z,994.98
2022-10-23T08:14:18.847Z,994.99
2022-10-23T08:15:18.840Z,995.04
2022-10-23T08:16:18.831Z,995.10
2022-10-23T08:17:18.830Z,995.04
2022-10-23T08:18:18.810Z,994.97
2022-10-23T08:19:18.792Z,994.95
2022-10-23T08:20:18.783Z,994.97
2022-10-23T08:21:18.780Z,994.94
2022-10-23T08:22:18.774Z,994.94
2022-10-23T08:23:18.763Z,994.97
2022-10-23T08:24:18.741Z,994.98
2022-10-23T08:25:21.881Z,995.02
2022-10-23T08:26:19.713Z,994.96
2022-10-23T08:27:18.743Z,994.92
2022-10-23T08:28:18.694Z,994.95
2022-10-23T08:29:18.695Z,994.91
2022-10-23T08:30:18.682Z,994.84
2022-10-23T08:31:18.665Z,994.84
2022-10-23T08:32:18.680Z,994.82
2022-10-23T08:33:18.654Z,994.83
2022-10-23T08:34:18.635Z,994.78
2022-10-23T08:35:18.635Z,994.80
2022-10-23T08:36:18.616Z,994.81
2022-10-23T08:37:18.629Z,994.77
2022-10-23T08:38:18.593Z,994.78
2022-10-23T08:39:18.594Z,994.80
2022-10-23T08:40:18.578Z,994.80
2022-10-23T08:41:18.568Z,994.81
2022-10-23T08:42:18.609Z,994.76
2022-10-23T08:43:18.570Z,994.69
2022-10-23T08:44:18.543Z,994.78
2022-10-23T08:45:18.538Z,994.77
2022-10-23T08:46:18.510Z,994.81
2022-10-23T08:47:18.520Z,994.77
2022-10-23T08:48:18.493Z,994.85
2022-10-23T08:49:18.481Z,994.74
2022-10-23T08:50:18.594Z,994.72
2022-10-23T08:51:18.462Z,994.73
2022-10-23T08:52:18.464Z,994.77
2022-10-23T08:53:18.439Z,994.75
2022-10-23T08:54:18.447Z,994.69
2022-10-23T08:55:18.419Z,994.74
2022-10-23T08:56:18.401Z,994.72
2022-10-23T08:57:18.412Z,994.71
2022-10-23T08:58:18.384Z,994.79
2022-10-23T08:59:18.375Z,994.72
2022-10-23T09:00:18.354Z,994.68
2022-10-23T09:01:18.485Z,994.72
2022-10-23T09:02:18.435Z,994.69
2022-10-23T09:03:18.332Z,994.65
2022-10-23T09:04:18.315Z,994.62
2022-10-23T09:05:18.306Z,994.61
2022-10-23T09:06:18.296Z,994.71
2022-10-23T09:07:18.304Z,994.71
2022-10-23T09:08:18.267Z,994.74
2022-10-23T09:09:18.267Z,994.77
2022-10-23T09:10:18.258Z,994.72
2022-10-23T09:11:18.249Z,994.72
2022-10-23T09:12:18.249Z,994.70
2022-10-23T09:13:18.228Z,994.69
2022-10-23T09:14:18.212Z,994.61
2022-10-23T09:15:18.200Z,994.62
2022-10-23T09:16:18.190Z,994.55
2022-10-23T09:17:18.218Z,994.55
2022-10-23T09:18:18.166Z,994.53
2022-10-23T09:19:18.166Z,994.52
2022-10-23T09:20:18.163Z,994.53
2022-10-23T09:21:18.157Z,994.50
2022-10-23T09:22:18.149Z,994.51
2022-10-23T09:23:18.115Z,994.51
2022-10-23T09:24:18.112Z,994.50
2022-10-23T09:25:18.139Z,994.52
2022-10-23T09:26:18.082Z,994.53
2022-10-23T09:27:18.097Z,994.50
2022-10-23T09:28:18.065Z,994.49
2022-10-23T09:29:18.065Z,994.51
2022-10-23T09:30:18.052Z,994.45
2022-10-23T09:31:18.037Z,994.55
2022-10-23T09:32:18.035Z,994.55
2022-10-23T09:33:18.014Z,994.56
2022-10-23T09:34:17.995Z,994.54
2022-10-23T09:35:17.997Z,994.52
2022-10-23T09:36:17.977Z,994.48
2022-10-23T09:37:18.422Z,994.48
2022-10-23T09:38:17.956Z,994.40
2022-10-23T09:39:17.948Z,994.40
2022-10-23T09:40:17.933Z,994.42
2022-10-23T09:41:17.929Z,994.39
2022-10-23T09:42:17.938Z,994.35
2022-10-23T09:43:17.913Z,994.40
2022-10-23T09:44:17.890Z,994.41
2022-10-23T09:45:17.883Z,994.45
2022-10-23T09:46:17.871Z,994.42
2022-10-23T09:47:17.882Z,994.40
2022-10-23T09:48:17.843Z,994.39
2022-10-23T09:49:17.854Z,994.31
2022-10-23T09:50:17.870Z,994.32
2022-10-23T09:51:17.827Z,994.35
2022-10-23T09:52:17.824Z,994.33
2022-10-23T09:53:17.799Z,994.32
2022-10-23T09:54:17.783Z,994.40
2022-10-23T09:55:17.782Z,994.34
2022-10-23T09:56:21.247Z,994.31
2022-10-23T09:57:18.787Z,994.30
2022-10-23T09:58:17.744Z,994.31
2022-10-23T09:59:17.735Z,994.29
2022-10-23T10:00:17.784Z,994.30
2022-10-23T10:01:17.797Z,994.28
2022-10-23T10:02:17.872Z,994.26
2022-10-23T10:03:17.695Z,994.34
2022-10-23T10:04:17.676Z,994.33
2022-10-23T10:05:17.675Z,994.25
2022-10-23T10:06:17.658Z,994.18
2022-10-23T10:07:17.668Z,994.18
2022-10-23T10:08:17.638Z,994.19
2022-10-23T10:09:17.629Z,994.21
2022-10-23T10:10:17.690Z,994.20
2022-10-23T10:11:17.609Z,994.26
2022-10-23T10:12:17.609Z,994.21
2022-10-23T10:13:17.590Z,994.22
2022-10-23T10:14:17.572Z,994.26
2022-10-23T10:15:17.574Z,994.25
2022-10-23T10:16:17.552Z,994.23
2022-10-23T10:17:17.564Z,994.18
2022-10-23T10:18:17.532Z,994.19
2022-10-23T10:19:17.529Z,994.19
2022-10-23T10:20:17.511Z,994.15
2022-10-23T10:21:17.504Z,994.14
2022-10-23T10:22:17.505Z,994.09
2022-10-23T10:23:17.483Z,994.06
2022-10-23T10:24:17.485Z,994.02
2022-10-23T10:25:17.478Z,993.94
2022-10-23T10:26:17.490Z,993.99
2022-10-23T10:27:17.466Z,993.95
2022-10-23T10:28:17.432Z,993.96
2022-10-23T10:29:17.425Z,993.97
2022-10-23T10:30:17.406Z,993.92
2022-10-23T10:31:17.405Z,993.92
2022-10-23T10:32:17.407Z,993.89
2022-10-23T10:33:17.384Z,993.97
2022-10-23T10:34:17.367Z,993.97
2022-10-23T10:35:17.365Z,994.01
2022-10-23T10:36:17.374Z,993.98
2022-10-23T10:37:17.357Z,993.99
2022-10-23T10:38:17.327Z,993.91
2022-10-23T10:39:17.319Z,993.92
2022-10-23T10:40:17.341Z,993.98
2022-10-23T10:41:17.298Z,993.94
2022-10-23T10:42:17.299Z,994.02
2022-10-23T10:43:17.271Z,994.01
2022-10-23T10:44:17.261Z,994.00
2022-10-23T10:45:17.252Z,994.01
2022-10-23T10:46:17.242Z,993.94
2022-10-23T10:47:20.171Z,993.84
2022-10-23T10:48:17.221Z,993.88
2022-10-23T10:49:17.212Z,993.83
2022-10-23T10:50:17.196Z,993.84
2022-10-23T10:51:17.184Z,993.77
2022-10-23T10:52:17.203Z,993.78
2022-10-23T10:53:17.175Z,993.79
2022-10-23T10:54:17.154Z,993.74
2022-10-23T10:55:17.144Z,993.73
2022-10-23T10:56:17.126Z,993.75
2022-10-23T10:57:17.143Z,993.74
2022-10-23T10:58:17.108Z,993.70
2022-10-23T10:59:17.106Z,993.66
2022-10-23T11:00:17.087Z,993.72
2022-10-23T11:01:17.178Z,993.72
2022-10-23T11:02:17.154Z,993.74
2022-10-23T11:03:17.059Z,993.70
2022-10-23T11:04:17.047Z,993.67
2022-10-23T11:05:17.037Z,993.57
2022-10-23T11:06:17.021Z,993.53
2022-10-23T11:07:17.037Z,993.56
2022-10-23T11:08:17.008Z,993.53
2022-10-23T11:09:20.686Z,993.55
2022-10-23T11:10:16.981Z,993.50
2022-10-23T11:11:16.971Z,993.48
2022-10-23T11:12:16.973Z,993.48
2022-10-23T11:13:16.952Z,993.53
2022-10-23T11:14:16.933Z,993.51
2022-10-23T11:15:16.931Z,993.48
2022-10-23T11:16:16.915Z,993.51
2022-10-23T11:17:16.934Z,993.45
2022-10-23T11:18:16.906Z,993.47
2022-10-23T11:19:16.935Z,993.39
2022-10-23T11:20:16.884Z,993.35
2022-10-23T11:21:16.865Z,993.31
2022-10-23T11:22:16.869Z,993.32
2022-10-23T11:23:16.846Z,993.30
2022-10-23T11:24:16.827Z,993.31
2022-10-23T11:25:16.817Z,993.35
2022-10-23T11:26:19.776Z,993.34
2022-10-23T11:27:16.834Z,993.24
2022-10-23T11:28:16.779Z,993.27
2022-10-23T11:29:16.777Z,993.24
2022-10-23T11:30:16.759Z,993.16
2022-10-23T11:31:16.757Z,993.21
2022-10-23T11:32:16.756Z,993.22
2022-10-23T11:33:16.740Z,993.21
2022-10-23T11:34:16.757Z,993.16
2022-10-23T11:35:16.710Z,993.11
2022-10-23T11:36:16.691Z,993.13
2022-10-23T11:37:16.709Z,993.09
2022-10-23T11:38:16.672Z,993.02
2022-10-23T11:39:16.671Z,993.05
2022-10-23T11:40:16.655Z,993.00
2022-10-23T11:41:18.908Z,992.88
2022-10-23T11:42:16.653Z,992.96
2022-10-23T11:43:16.624Z,992.90
2022-10-23T11:44:16.611Z,992.94
2022-10-23T11:45:16.605Z,992.97
2022-10-23T11:46:16.604Z,992.86
2022-10-23T11:47:16.602Z,992.94
2022-10-23T11:48:16.573Z,992.88
2022-10-23T11:49:16.559Z,992.93
2022-10-23T11:50:16.556Z,992.82
2022-10-23T11:51:16.536Z,992.85
2022-10-23T11:52:16.548Z,992.90
2022-10-23T11:53:17.038Z,992.86
2022-10-23T11:54:16.508Z,992.84
2022-10-23T11:55:16.489Z,992.93
2022-10-23T11:56:16.501Z,992.95
2022-10-23T11:57:16.491Z,992.86
2022-10-23T11:58:16.467Z,992.84
2022-10-23T11:59:16.450Z,992.80
2022-10-23T12:00:16.447Z,992.76
2022-10-23T12:01:16.507Z,992.82
2022-10-23T12:02:16.484Z,992.78
2022-10-23T12:03:16.411Z,992.71
2022-10-23T12:04:16.402Z,992.68
2022-10-23T12:05:16.391Z,992.66
2022-10-23T12:06:16.382Z,992.64
2022-10-23T12:07:16.381Z,992.66
2022-10-23T12:08:16.361Z,992.65
2022-10-23T12:09:16.343Z,992.69
2022-10-23T12:10:16.334Z,992.69
2022-10-23T12:11:16.315Z,992.64
2022-10-23T12:12:16.334Z,992.64
2022-10-23T12:13:16.314Z,992.62
2022-10-23T12:14:16.299Z,992.67
2022-10-23T12:15:16.284Z,992.64
2022-10-23T12:16:16.277Z,992.63
2022-10-23T12:17:16.275Z,992.60
2022-10-23T12:18:16.258Z,992.60
2022-10-23T12:19:16.236Z,992.62
2022-10-23T12:20:16.227Z,992.60
2022-10-23T12:21:16.217Z,992.58
2022-10-23T12:22:16.234Z,992.54
2022-10-23T12:23:16.197Z,992.51
2022-10-23T12:24:16.188Z,992.50
2022-10-23T12:25:16.169Z,992.51
2022-10-23T12:26:16.161Z,992.52
2022-10-23T12:27:16.167Z,992.49
2022-10-23T12:28:16.142Z,992.47
2022-10-23T12:29:16.121Z,992.45
2022-10-23T12:30:16.131Z,992.42
2022-10-23T12:31:16.102Z,992.36
2022-10-23T12:32:16.129Z,992.40
2022-10-23T12:33:16.083Z,992.37